FranceFixed distance
La Grande Course des Templiers
29 Oct2006
Distance
66km
Finishers
1,9011,733 men168 women
Winning time
6:34:56h
Median pace
6.24km/h
Pace distribution
1,901 finishers · 4.34–10.03 km/h · mean 6.40
Every finisher ran the same 66 km course, so these paces are directly comparable.
Histogram of finisher pace. 1,901 finishers ranged from 4.34 to 10.03 kilometres per hour, with a mean of 6.40 and a median of 6.24. The busiest band is 5.5 to 6.0 kilometres per hour, with 432 finishers.
Results
Ranks 1,351–1,400 of 1,901
| Rank | Runner | Time | Pace | Cat. | Placing |
|---|---|---|---|---|---|
| 1351 | Taveneau, GenevieveFranceWoman | 11:31:51h | 5.72 | W40 | 87th F · 15th W40 |
| 1352 | Marcel, MarylineFranceWoman | 11:31:55h | 5.72 | W45 | 88th F · 9th W45 |
| 1353 | Michet, BernardFranceMan | 11:31:57h | 5.72 | M65 | 1265th M · 2nd M65 |
| 1354 | Houel, BertrandFranceMan | 11:31:57h | 5.72 | M45 | 1265th M · 193rd M45 |
| 1355 | Barbareau, BenoitFranceMan | 11:31:57h | 5.72 | M40 | 1265th M · 249th M40 |
| 1356 | Cavaillier, CarolineFranceWoman | 11:31:59h | 5.72 | — | 89th F |
| 1357 | Caron, MichelFranceMan | 11:32:00h | 5.72 | M40 | 1268th M · 250th M40 |
| 1358 | Jardat, HuguesFranceMan | 11:32:20h | 5.72 | M40 | 1269th M · 251st M40 |
| 1359 | Sabatte, PierreFranceMan | 11:32:27h | 5.72 | M40 | 1270th M · 252nd M40 |
| 1360 | Lambert, ChristopheFranceMan | 11:32:27h | 5.72 | M40 | 1270th M · 252nd M40 |
| 1361 | Nivelle, ClaudeFranceMan | 11:32:31h | 5.72 | M50 | 1272nd M · 87th M50 |
| 1362 | Beauverger, PatriciaFranceWoman | 11:32:31h | 5.72 | W40 | 90th F · 16th W40 |
| 1363 | Metais, MartineFranceWoman | 11:32:32h | 5.72 | W50 | 91st F · 10th W50 |
| 1364 | Douillez, VincentFranceMan | 11:32:33h | 5.72 | — | 1273rd M |
| 1365 | dos Santos, ManuelPortugalMan | 11:32:36h | 5.72 | M55 | 1274th M · 35th M55 |
| 1366 | Beauffeny, FredericFranceMan | 11:32:37h | 5.72 | M40 | 1275th M · 254th M40 |
| 1367 | Mader, YvesFranceMan | 11:32:38h | 5.72 | M50 | 1276th M · 88th M50 |
| 1368 | Brunetaud, DanielleFranceWoman | 11:32:55h | 5.71 | W50 | 92nd F · 11th W50 |
| 1369 | Sabadel-Reynaud, ThierryFranceMan | 11:33:03h | 5.71 | M40 | 1277th M · 255th M40 |
| 1370 | Le Gal, DanielFranceMan | 11:33:06h | 5.71 | M40 | 1278th M · 256th M40 |
| 1371 | Ouellard, SylvainFranceMan | 11:33:21h | 5.71 | — | 1279th M |
| 1372 | Soudieux, Jean-ClaudeFranceMan | 11:33:22h | 5.71 | M65 | 1280th M · 3rd M65 |
| 1373 | Khenouche, MenedFranceMan | 11:33:39h | 5.71 | — | 1281st M |
| 1374 | Repusseau, PatrickFranceMan | 11:33:41h | 5.71 | M50 | 1282nd M · 89th M50 |
| 1375 | Dewet, PhilippeFranceMan | 11:33:42h | 5.71 | M40 | 1283rd M · 257th M40 |
| 1376 | Furic, FredericFranceMan | 11:33:47h | 5.71 | M35 | 1284th M · 242nd M35 |
| 1377 | Accerani, NadiaFranceWoman | 11:33:53h | 5.71 | W45 | 93rd F · 10th W45 |
| 1378 | Trupia, MichelFranceMan | 11:34:42h | 5.70 | M40 | 1285th M · 258th M40 |
| 1379 | Doutte, WillieFranceMan | 11:35:04h | 5.70 | M23 | 1286th M · 250th M23 |
| 1380 | Guillin, DanielFranceMan | 11:35:46h | 5.69 | M45 | 1287th M · 194th M45 |
| 1381 | Crotti, BrunoFranceMan | 11:35:52h | 5.69 | — | 1288th M |
| 1382 | Chatelain, RonanFranceMan | 11:36:29h | 5.69 | M35 | 1289th M · 243rd M35 |
| 1383 | Le Meur, NicolasFranceMan | 11:36:29h | 5.69 | M35 | 1289th M · 243rd M35 |
| 1384 | Charpentier, RodolpheFranceMan | 11:36:38h | 5.68 | M23 | 1291st M · 251st M23 |
| 1385 | Boisson, BrunoFranceMan | 11:36:39h | 5.68 | M45 | 1292nd M · 195th M45 |
| 1386 | Cotton, LoicFranceMan | 11:36:52h | 5.68 | M50 | 1293rd M · 90th M50 |
| 1387 | Aspert, SylvainFranceMan | 11:36:57h | 5.68 | — | 1294th M |
| 1388 | Levrel, DenisFranceMan | 11:37:06h | 5.68 | M50 | 1295th M · 91st M50 |
| 1389 | Risse, BrunoFranceMan | 11:37:08h | 5.68 | M40 | 1296th M · 259th M40 |
| 1390 | Vallee, LudovicFranceMan | 11:37:08h | 5.68 | M23 | 1296th M · 252nd M23 |
| 1391 | Malherbe, PhilippeFranceMan | 11:37:10h | 5.68 | M45 | 1298th M · 196th M45 |
| 1392 | Buschino, GuyFranceMan | 11:37:11h | 5.68 | M50 | 1299th M · 92nd M50 |
| 1393 | Armand, JacquesFranceMan | 11:37:21h | 5.68 | — | 1300th M |
| 1394 | Fronzes, GillesFranceMan | 11:37:26h | 5.68 | M45 | 1301st M · 197th M45 |
| 1395 | Sarthou, BernardFranceMan | 11:37:32h | 5.68 | — | 1302nd M |
| 1396 | Baron, DamienFranceMan | 11:37:35h | 5.68 | M45 | 1303rd M · 198th M45 |
| 1397 | Lescormez, GeraldFranceMan | 11:37:35h | 5.68 | — | 1303rd M |
| 1398 | Anani, VincentFranceMan | 11:37:36h | 5.68 | M35 | 1305th M · 245th M35 |
| 1399 | Arino, MichelFranceMan | 11:37:50h | 5.67 | — | 1306th M |
| 1400 | Porte, AlainFranceMan | 11:37:59h | 5.67 | M45 | 1307th M · 199th M45 |
- 1351Taveneau, GenevieveFranceWoman87th F · 15th W40Time11:31:51hPace5.72Cat.W40
- 1352Marcel, MarylineFranceWoman88th F · 9th W45Time11:31:55hPace5.72Cat.W45
- 1353Michet, BernardFranceMan1265th M · 2nd M65Time11:31:57hPace5.72Cat.M65
- 1354Houel, BertrandFranceMan1265th M · 193rd M45Time11:31:57hPace5.72Cat.M45
- 1355Barbareau, BenoitFranceMan1265th M · 249th M40Time11:31:57hPace5.72Cat.M40
- 1356Cavaillier, CarolineFranceWoman89th FTime11:31:59hPace5.72
- 1357Caron, MichelFranceMan1268th M · 250th M40Time11:32:00hPace5.72Cat.M40
- 1358Jardat, HuguesFranceMan1269th M · 251st M40Time11:32:20hPace5.72Cat.M40
- 1359Sabatte, PierreFranceMan1270th M · 252nd M40Time11:32:27hPace5.72Cat.M40
- 1360Lambert, ChristopheFranceMan1270th M · 252nd M40Time11:32:27hPace5.72Cat.M40
- 1361Nivelle, ClaudeFranceMan1272nd M · 87th M50Time11:32:31hPace5.72Cat.M50
- 1362Beauverger, PatriciaFranceWoman90th F · 16th W40Time11:32:31hPace5.72Cat.W40
- 1363Metais, MartineFranceWoman91st F · 10th W50Time11:32:32hPace5.72Cat.W50
- 1364Douillez, VincentFranceMan1273rd MTime11:32:33hPace5.72
- 1365dos Santos, ManuelPortugalMan1274th M · 35th M55Time11:32:36hPace5.72Cat.M55
- 1366Beauffeny, FredericFranceMan1275th M · 254th M40Time11:32:37hPace5.72Cat.M40
- 1367Mader, YvesFranceMan1276th M · 88th M50Time11:32:38hPace5.72Cat.M50
- 1368Brunetaud, DanielleFranceWoman92nd F · 11th W50Time11:32:55hPace5.71Cat.W50
- 1369Sabadel-Reynaud, ThierryFranceMan1277th M · 255th M40Time11:33:03hPace5.71Cat.M40
- 1370Le Gal, DanielFranceMan1278th M · 256th M40Time11:33:06hPace5.71Cat.M40
- 1371Ouellard, SylvainFranceMan1279th MTime11:33:21hPace5.71
- 1372Soudieux, Jean-ClaudeFranceMan1280th M · 3rd M65Time11:33:22hPace5.71Cat.M65
- 1373Khenouche, MenedFranceMan1281st MTime11:33:39hPace5.71
- 1374Repusseau, PatrickFranceMan1282nd M · 89th M50Time11:33:41hPace5.71Cat.M50
- 1375Dewet, PhilippeFranceMan1283rd M · 257th M40Time11:33:42hPace5.71Cat.M40
- 1376Furic, FredericFranceMan1284th M · 242nd M35Time11:33:47hPace5.71Cat.M35
- 1377Accerani, NadiaFranceWoman93rd F · 10th W45Time11:33:53hPace5.71Cat.W45
- 1378Trupia, MichelFranceMan1285th M · 258th M40Time11:34:42hPace5.70Cat.M40
- 1379Doutte, WillieFranceMan1286th M · 250th M23Time11:35:04hPace5.70Cat.M23
- 1380Guillin, DanielFranceMan1287th M · 194th M45Time11:35:46hPace5.69Cat.M45
- 1381Crotti, BrunoFranceMan1288th MTime11:35:52hPace5.69
- 1382Chatelain, RonanFranceMan1289th M · 243rd M35Time11:36:29hPace5.69Cat.M35
- 1383Le Meur, NicolasFranceMan1289th M · 243rd M35Time11:36:29hPace5.69Cat.M35
- 1384Charpentier, RodolpheFranceMan1291st M · 251st M23Time11:36:38hPace5.68Cat.M23
- 1385Boisson, BrunoFranceMan1292nd M · 195th M45Time11:36:39hPace5.68Cat.M45
- 1386Cotton, LoicFranceMan1293rd M · 90th M50Time11:36:52hPace5.68Cat.M50
- 1387Aspert, SylvainFranceMan1294th MTime11:36:57hPace5.68
- 1388Levrel, DenisFranceMan1295th M · 91st M50Time11:37:06hPace5.68Cat.M50
- 1389Risse, BrunoFranceMan1296th M · 259th M40Time11:37:08hPace5.68Cat.M40
- 1390Vallee, LudovicFranceMan1296th M · 252nd M23Time11:37:08hPace5.68Cat.M23
- 1391Malherbe, PhilippeFranceMan1298th M · 196th M45Time11:37:10hPace5.68Cat.M45
- 1392Buschino, GuyFranceMan1299th M · 92nd M50Time11:37:11hPace5.68Cat.M50
- 1393Armand, JacquesFranceMan1300th MTime11:37:21hPace5.68
- 1394Fronzes, GillesFranceMan1301st M · 197th M45Time11:37:26hPace5.68Cat.M45
- 1395Sarthou, BernardFranceMan1302nd MTime11:37:32hPace5.68
- 1396Baron, DamienFranceMan1303rd M · 198th M45Time11:37:35hPace5.68Cat.M45
- 1397Lescormez, GeraldFranceMan1303rd MTime11:37:35hPace5.68
- 1398Anani, VincentFranceMan1305th M · 245th M35Time11:37:36hPace5.68Cat.M35
- 1399Arino, MichelFranceMan1306th MTime11:37:50hPace5.67
- 1400Porte, AlainFranceMan1307th M · 199th M45Time11:37:59hPace5.67Cat.M45
Showing ranks 1,351–1,400 of 1,901